sensor_id;sensor_type;location;lat;lon;timestamp;temperature;humidity
40023;DHT22;25713;-35.352;149.036;2023-05-17T00:00:44;12.80;68.30
40023;DHT22;25713;-35.352;149.036;2023-05-17T00:03:13;12.80;68.00
40023;DHT22;25713;-35.352;149.036;2023-05-17T00:05:43;12.80;68.10
40023;DHT22;25713;-35.352;149.036;2023-05-17T00:08:13;12.80;68.70
40023;DHT22;25713;-35.352;149.036;2023-05-17T00:10:42;12.90;67.80
40023;DHT22;25713;-35.352;149.036;2023-05-17T00:13:11;12.80;69.10
40023;DHT22;25713;-35.352;149.036;2023-05-17T00:15:43;12.90;68.90
40023;DHT22;25713;-35.352;149.036;2023-05-17T00:18:12;13.00;68.30
40023;DHT22;25713;-35.352;149.036;2023-05-17T00:20:42;13.10;68.30
40023;DHT22;25713;-35.352;149.036;2023-05-17T00:23:11;13.20;68.30
40023;DHT22;25713;-35.352;149.036;2023-05-17T00:25:41;13.20;68.40
40023;DHT22;25713;-35.352;149.036;2023-05-17T00:28:10;13.20;68.00
40023;DHT22;25713;-35.352;149.036;2023-05-17T00:30:39;13.20;68.50
40023;DHT22;25713;-35.352;149.036;2023-05-17T00:33:11;13.30;68.60
40023;DHT22;25713;-35.352;149.036;2023-05-17T00:35:40;13.30;68.60
40023;DHT22;25713;-35.352;149.036;2023-05-17T00:38:10;13.30;67.90
40023;DHT22;25713;-35.352;149.036;2023-05-17T00:40:39;13.30;68.10
40023;DHT22;25713;-35.352;149.036;2023-05-17T00:43:09;13.40;68.20
40023;DHT22;25713;-35.352;149.036;2023-05-17T00:45:38;13.40;68.40
40023;DHT22;25713;-35.352;149.036;2023-05-17T00:48:12;13.40;68.60
40023;DHT22;25713;-35.352;149.036;2023-05-17T00:50:42;13.40;68.50
40023;DHT22;25713;-35.352;149.036;2023-05-17T00:53:12;13.40;68.10
40023;DHT22;25713;-35.352;149.036;2023-05-17T00:55:42;13.50;67.40
40023;DHT22;25713;-35.352;149.036;2023-05-17T00:58:12;13.40;68.00
40023;DHT22;25713;-35.352;149.036;2023-05-17T01:00:42;13.50;68.00
40023;DHT22;25713;-35.352;149.036;2023-05-17T01:03:15;13.60;68.20
40023;DHT22;25713;-35.352;149.036;2023-05-17T01:05:45;13.60;67.60
40023;DHT22;25713;-35.352;149.036;2023-05-17T01:08:15;13.60;66.90
40023;DHT22;25713;-35.352;149.036;2023-05-17T01:10:53;13.70;68.20
40023;DHT22;25713;-35.352;149.036;2023-05-17T01:13:31;13.70;67.80
40023;DHT22;25713;-35.352;149.036;2023-05-17T01:16:07;13.70;68.10
40023;DHT22;25713;-35.352;149.036;2023-05-17T01:18:45;13.80;67.80
40023;DHT22;25713;-35.352;149.036;2023-05-17T01:21:35;13.90;68.10
40023;DHT22;25713;-35.352;149.036;2023-05-17T01:24:24;13.90;67.90
40023;DHT22;25713;-35.352;149.036;2023-05-17T01:26:59;14.00;67.90
40023;DHT22;25713;-35.352;149.036;2023-05-17T01:29:29;14.10;66.60
40023;DHT22;25713;-35.352;149.036;2023-05-17T01:32:00;14.00;66.90
40023;DHT22;25713;-35.352;149.036;2023-05-17T01:34:30;14.10;67.80
40023;DHT22;25713;-35.352;149.036;2023-05-17T01:37:00;14.10;67.80
40023;DHT22;25713;-35.352;149.036;2023-05-17T01:39:30;14.20;67.70
40023;DHT22;25713;-35.352;149.036;2023-05-17T01:42:09;14.20;67.10
40023;DHT22;25713;-35.352;149.036;2023-05-17T01:44:46;14.20;67.40
40023;DHT22;25713;-35.352;149.036;2023-05-17T01:47:23;14.30;67.10
40023;DHT22;25713;-35.352;149.036;2023-05-17T01:49:54;14.40;67.70
40023;DHT22;25713;-35.352;149.036;2023-05-17T01:52:28;14.40;68.30
40023;DHT22;25713;-35.352;149.036;2023-05-17T01:55:05;14.40;67.40
40023;DHT22;25713;-35.352;149.036;2023-05-17T01:57:43;14.40;67.20
40023;DHT22;25713;-35.352;149.036;2023-05-17T02:00:14;14.50;68.20
40023;DHT22;25713;-35.352;149.036;2023-05-17T02:02:45;14.50;68.10
40023;DHT22;25713;-35.352;149.036;2023-05-17T02:05:15;14.50;67.80
40023;DHT22;25713;-35.352;149.036;2023-05-17T02:07:44;14.50;66.60
40023;DHT22;25713;-35.352;149.036;2023-05-17T02:10:14;14.60;67.40
40023;DHT22;25713;-35.352;149.036;2023-05-17T02:12:50;14.50;66.80
40023;DHT22;25713;-35.352;149.036;2023-05-17T02:15:19;14.60;67.90
40023;DHT22;25713;-35.352;149.036;2023-05-17T02:17:49;14.60;67.20
40023;DHT22;25713;-35.352;149.036;2023-05-17T02:20:19;14.60;68.50
40023;DHT22;25713;-35.352;149.036;2023-05-17T02:22:49;14.60;67.50
40023;DHT22;25713;-35.352;149.036;2023-05-17T02:25:18;14.60;66.70
40023;DHT22;25713;-35.352;149.036;2023-05-17T02:27:51;14.70;68.10
40023;DHT22;25713;-35.352;149.036;2023-05-17T02:30:21;14.70;67.10
40023;DHT22;25713;-35.352;149.036;2023-05-17T02:32:52;14.70;67.20
40023;DHT22;25713;-35.352;149.036;2023-05-17T02:35:22;14.70;65.60
40023;DHT22;25713;-35.352;149.036;2023-05-17T02:37:52;14.80;66.50
40023;DHT22;25713;-35.352;149.036;2023-05-17T02:40:22;14.80;66.50
40023;DHT22;25713;-35.352;149.036;2023-05-17T02:42:55;14.90;67.70
40023;DHT22;25713;-35.352;149.036;2023-05-17T02:45:25;14.90;67.30
40023;DHT22;25713;-35.352;149.036;2023-05-17T02:47:55;14.90;67.80
40023;DHT22;25713;-35.352;149.036;2023-05-17T02:50:25;14.90;68.90
40023;DHT22;25713;-35.352;149.036;2023-05-17T02:52:55;15.00;67.70
40023;DHT22;25713;-35.352;149.036;2023-05-17T02:55:24;15.00;68.20
40023;DHT22;25713;-35.352;149.036;2023-05-17T02:57:57;15.00;68.70
40023;DHT22;25713;-35.352;149.036;2023-05-17T03:00:26;15.10;68.20
40023;DHT22;25713;-35.352;149.036;2023-05-17T03:02:56;15.10;68.20
40023;DHT22;25713;-35.352;149.036;2023-05-17T03:05:26;15.10;66.90
40023;DHT22;25713;-35.352;149.036;2023-05-17T03:07:55;15.10;67.40
40023;DHT22;25713;-35.352;149.036;2023-05-17T03:10:25;15.10;67.40
40023;DHT22;25713;-35.352;149.036;2023-05-17T03:12:57;15.20;68.60
40023;DHT22;25713;-35.352;149.036;2023-05-17T03:15:31;15.10;68.40
40023;DHT22;25713;-35.352;149.036;2023-05-17T03:18:01;15.20;67.60
40023;DHT22;25713;-35.352;149.036;2023-05-17T03:20:31;15.20;68.60
40023;DHT22;25713;-35.352;149.036;2023-05-17T03:23:01;15.20;68.90
40023;DHT22;25713;-35.352;149.036;2023-05-17T03:25:34;15.30;69.00
40023;DHT22;25713;-35.352;149.036;2023-05-17T03:28:08;15.30;67.90
40023;DHT22;25713;-35.352;149.036;2023-05-17T03:30:38;15.30;68.30
40023;DHT22;25713;-35.352;149.036;2023-05-17T03:33:09;15.30;66.60
40023;DHT22;25713;-35.352;149.036;2023-05-17T03:35:38;15.30;68.20
40023;DHT22;25713;-35.352;149.036;2023-05-17T03:38:08;15.30;68.30
40023;DHT22;25713;-35.352;149.036;2023-05-17T03:40:37;15.40;68.00
40023;DHT22;25713;-35.352;149.036;2023-05-17T03:43:11;15.40;67.70
40023;DHT22;25713;-35.352;149.036;2023-05-17T03:45:41;15.50;67.10
40023;DHT22;25713;-35.352;149.036;2023-05-17T03:48:10;15.50;67.90
40023;DHT22;25713;-35.352;149.036;2023-05-17T03:50:40;15.50;67.50
40023;DHT22;25713;-35.352;149.036;2023-05-17T03:53:10;15.50;67.70
40023;DHT22;25713;-35.352;149.036;2023-05-17T03:55:40;15.50;68.80
40023;DHT22;25713;-35.352;149.036;2023-05-17T03:58:12;15.50;68.40
40023;DHT22;25713;-35.352;149.036;2023-05-17T04:00:43;15.50;67.80
40023;DHT22;25713;-35.352;149.036;2023-05-17T04:03:17;15.50;69.00
40023;DHT22;25713;-35.352;149.036;2023-05-17T04:05:46;15.50;67.50
40023;DHT22;25713;-35.352;149.036;2023-05-17T04:08:16;15.50;66.90
40023;DHT22;25713;-35.352;149.036;2023-05-17T04:10:45;15.50;68.40
40023;DHT22;25713;-35.352;149.036;2023-05-17T04:13:18;15.50;68.20
40023;DHT22;25713;-35.352;149.036;2023-05-17T04:15:47;15.50;67.70
40023;DHT22;25713;-35.352;149.036;2023-05-17T04:18:17;15.50;68.40
40023;DHT22;25713;-35.352;149.036;2023-05-17T04:20:46;15.50;68.60
40023;DHT22;25713;-35.352;149.036;2023-05-17T04:23:16;15.60;69.10
40023;DHT22;25713;-35.352;149.036;2023-05-17T04:25:45;15.50;66.60
40023;DHT22;25713;-35.352;149.036;2023-05-17T04:28:18;15.60;68.50
40023;DHT22;25713;-35.352;149.036;2023-05-17T04:30:48;15.60;68.80
40023;DHT22;25713;-35.352;149.036;2023-05-17T04:33:18;15.60;69.60
40023;DHT22;25713;-35.352;149.036;2023-05-17T04:35:49;15.60;68.90
40023;DHT22;25713;-35.352;149.036;2023-05-17T04:38:20;15.60;68.00
40023;DHT22;25713;-35.352;149.036;2023-05-17T04:40:49;15.60;68.90
40023;DHT22;25713;-35.352;149.036;2023-05-17T04:43:22;15.60;68.80
40023;DHT22;25713;-35.352;149.036;2023-05-17T04:45:55;15.60;67.30
40023;DHT22;25713;-35.352;149.036;2023-05-17T04:48:24;15.60;67.90
40023;DHT22;25713;-35.352;149.036;2023-05-17T04:50:54;15.60;68.20
40023;DHT22;25713;-35.352;149.036;2023-05-17T04:53:23;15.60;67.70
40023;DHT22;25713;-35.352;149.036;2023-05-17T04:55:53;15.60;67.80
40023;DHT22;25713;-35.352;149.036;2023-05-17T04:58:27;15.60;66.60
40023;DHT22;25713;-35.352;149.036;2023-05-17T05:01:00;15.60;68.40
40023;DHT22;25713;-35.352;149.036;2023-05-17T05:03:30;15.60;68.20
40023;DHT22;25713;-35.352;149.036;2023-05-17T05:06:00;15.60;68.20
40023;DHT22;25713;-35.352;149.036;2023-05-17T05:08:29;15.60;68.20
40023;DHT22;25713;-35.352;149.036;2023-05-17T05:10:59;15.60;67.40
40023;DHT22;25713;-35.352;149.036;2023-05-17T05:13:33;15.60;68.40
40023;DHT22;25713;-35.352;149.036;2023-05-17T05:16:03;15.60;68.50
40023;DHT22;25713;-35.352;149.036;2023-05-17T05:18:32;15.60;67.20
40023;DHT22;25713;-35.352;149.036;2023-05-17T05:21:02;15.70;68.30
40023;DHT22;25713;-35.352;149.036;2023-05-17T05:23:32;15.70;68.70
40023;DHT22;25713;-35.352;149.036;2023-05-17T05:26:02;15.70;66.40
40023;DHT22;25713;-35.352;149.036;2023-05-17T05:28:36;15.70;67.80
40023;DHT22;25713;-35.352;149.036;2023-05-17T05:31:06;15.70;68.70
40023;DHT22;25713;-35.352;149.036;2023-05-17T05:33:43;15.70;68.50
40023;DHT22;25713;-35.352;149.036;2023-05-17T05:36:13;15.70;67.90
40023;DHT22;25713;-35.352;149.036;2023-05-17T05:38:43;15.70;67.80
40023;DHT22;25713;-35.352;149.036;2023-05-17T05:41:12;15.70;68.50
40023;DHT22;25713;-35.352;149.036;2023-05-17T05:43:44;15.70;67.70
40023;DHT22;25713;-35.352;149.036;2023-05-17T05:46:15;15.60;68.70
40023;DHT22;25713;-35.352;149.036;2023-05-17T05:48:44;15.60;68.70
40023;DHT22;25713;-35.352;149.036;2023-05-17T05:51:14;15.60;67.60
40023;DHT22;25713;-35.352;149.036;2023-05-17T05:53:45;15.60;68.10
40023;DHT22;25713;-35.352;149.036;2023-05-17T05:56:15;15.60;68.50
40023;DHT22;25713;-35.352;149.036;2023-05-17T05:58:48;15.60;68.90
40023;DHT22;25713;-35.352;149.036;2023-05-17T06:01:17;15.60;68.90
40023;DHT22;25713;-35.352;149.036;2023-05-17T06:03:47;15.60;68.90
40023;DHT22;25713;-35.352;149.036;2023-05-17T06:06:16;15.60;69.70
40023;DHT22;25713;-35.352;149.036;2023-05-17T06:08:46;15.60;69.70
40023;DHT22;25713;-35.352;149.036;2023-05-17T06:11:15;15.60;70.80
40023;DHT22;25713;-35.352;149.036;2023-05-17T06:13:48;15.60;70.40
40023;DHT22;25713;-35.352;149.036;2023-05-17T06:16:17;15.50;71.20
40023;DHT22;25713;-35.352;149.036;2023-05-17T06:18:47;15.50;71.30
40023;DHT22;25713;-35.352;149.036;2023-05-17T06:21:16;15.50;71.30
40023;DHT22;25713;-35.352;149.036;2023-05-17T06:23:46;15.50;71.10
40023;DHT22;25713;-35.352;149.036;2023-05-17T06:26:15;15.50;71.70
40023;DHT22;25713;-35.352;149.036;2023-05-17T06:28:48;15.50;71.60
40023;DHT22;25713;-35.352;149.036;2023-05-17T06:31:18;15.50;71.70
40023;DHT22;25713;-35.352;149.036;2023-05-17T06:33:47;15.50;72.20
40023;DHT22;25713;-35.352;149.036;2023-05-17T06:36:16;15.50;72.40
40023;DHT22;25713;-35.352;149.036;2023-05-17T06:38:46;15.50;72.30
40023;DHT22;25713;-35.352;149.036;2023-05-17T06:41:15;15.40;72.30
40023;DHT22;25713;-35.352;149.036;2023-05-17T06:43:48;15.40;73.10
40023;DHT22;25713;-35.352;149.036;2023-05-17T06:46:18;15.40;73.00
40023;DHT22;25713;-35.352;149.036;2023-05-17T06:48:47;15.40;73.30
40023;DHT22;25713;-35.352;149.036;2023-05-17T06:51:17;15.40;73.60
40023;DHT22;25713;-35.352;149.036;2023-05-17T06:53:46;15.40;73.70
40023;DHT22;25713;-35.352;149.036;2023-05-17T06:56:16;15.40;73.80
40023;DHT22;25713;-35.352;149.036;2023-05-17T06:58:47;15.40;73.90
40023;DHT22;25713;-35.352;149.036;2023-05-17T07:01:16;15.40;74.80
40023;DHT22;25713;-35.352;149.036;2023-05-17T07:03:46;15.40;74.70
40023;DHT22;25713;-35.352;149.036;2023-05-17T07:06:16;15.30;73.90
40023;DHT22;25713;-35.352;149.036;2023-05-17T07:08:45;15.30;74.70
40023;DHT22;25713;-35.352;149.036;2023-05-17T07:11:14;15.30;75.50
40023;DHT22;25713;-35.352;149.036;2023-05-17T07:13:46;15.30;75.40
40023;DHT22;25713;-35.352;149.036;2023-05-17T07:16:16;15.30;74.20
40023;DHT22;25713;-35.352;149.036;2023-05-17T07:18:46;15.30;74.20
40023;DHT22;25713;-35.352;149.036;2023-05-17T07:21:15;15.30;74.00
40023;DHT22;25713;-35.352;149.036;2023-05-17T07:23:45;15.20;74.40
40023;DHT22;25713;-35.352;149.036;2023-05-17T07:26:14;15.20;73.30
40023;DHT22;25713;-35.352;149.036;2023-05-17T07:28:44;15.30;75.70
40023;DHT22;25713;-35.352;149.036;2023-05-17T07:31:15;15.20;75.10
40023;DHT22;25713;-35.352;149.036;2023-05-17T07:33:44;15.20;74.30
40023;DHT22;25713;-35.352;149.036;2023-05-17T07:36:14;15.20;73.60
40023;DHT22;25713;-35.352;149.036;2023-05-17T07:38:43;15.20;73.90
40023;DHT22;25713;-35.352;149.036;2023-05-17T07:41:13;15.10;75.20
40023;DHT22;25713;-35.352;149.036;2023-05-17T07:43:43;15.10;74.60
40023;DHT22;25713;-35.352;149.036;2023-05-17T07:46:14;15.10;75.40
40023;DHT22;25713;-35.352;149.036;2023-05-17T07:48:43;15.10;75.60
40023;DHT22;25713;-35.352;149.036;2023-05-17T07:51:13;15.10;75.60
40023;DHT22;25713;-35.352;149.036;2023-05-17T07:53:42;15.10;76.20
40023;DHT22;25713;-35.352;149.036;2023-05-17T07:56:12;15.10;76.20
40023;DHT22;25713;-35.352;149.036;2023-05-17T07:58:41;15.10;76.70
40023;DHT22;25713;-35.352;149.036;2023-05-17T08:01:11;15.10;76.40
40023;DHT22;25713;-35.352;149.036;2023-05-17T08:03:42;15.10;76.00
40023;DHT22;25713;-35.352;149.036;2023-05-17T08:06:11;15.10;77.30
40023;DHT22;25713;-35.352;149.036;2023-05-17T08:08:41;15.00;76.40
40023;DHT22;25713;-35.352;149.036;2023-05-17T08:11:11;15.00;77.70
40023;DHT22;25713;-35.352;149.036;2023-05-17T08:13:41;15.00;78.00
40023;DHT22;25713;-35.352;149.036;2023-05-17T08:16:10;15.00;75.90
40023;DHT22;25713;-35.352;149.036;2023-05-17T08:18:41;15.00;75.60
40023;DHT22;25713;-35.352;149.036;2023-05-17T08:21:11;15.00;76.50
40023;DHT22;25713;-35.352;149.036;2023-05-17T08:23:40;15.00;77.10
40023;DHT22;25713;-35.352;149.036;2023-05-17T08:26:09;15.00;77.90
40023;DHT22;25713;-35.352;149.036;2023-05-17T08:28:39;15.00;77.90
40023;DHT22;25713;-35.352;149.036;2023-05-17T08:31:08;15.00;78.10
40023;DHT22;25713;-35.352;149.036;2023-05-17T08:33:38;14.90;77.40
40023;DHT22;25713;-35.352;149.036;2023-05-17T08:36:09;15.00;78.00
40023;DHT22;25713;-35.352;149.036;2023-05-17T08:38:39;14.90;77.30
40023;DHT22;25713;-35.352;149.036;2023-05-17T08:41:09;14.90;77.80
40023;DHT22;25713;-35.352;149.036;2023-05-17T08:43:38;15.00;78.10
40023;DHT22;25713;-35.352;149.036;2023-05-17T08:46:09;14.90;78.90
40023;DHT22;25713;-35.352;149.036;2023-05-17T08:48:39;14.90;79.10
40023;DHT22;25713;-35.352;149.036;2023-05-17T08:51:11;14.90;79.50
40023;DHT22;25713;-35.352;149.036;2023-05-17T08:53:42;14.90;79.00
40023;DHT22;25713;-35.352;149.036;2023-05-17T08:56:13;14.90;78.20
40023;DHT22;25713;-35.352;149.036;2023-05-17T08:58:44;14.90;77.50
40023;DHT22;25713;-35.352;149.036;2023-05-17T09:01:15;14.90;77.10
40023;DHT22;25713;-35.352;149.036;2023-05-17T09:03:47;14.90;77.20
40023;DHT22;25713;-35.352;149.036;2023-05-17T09:06:20;14.90;76.90
40023;DHT22;25713;-35.352;149.036;2023-05-17T09:08:51;14.80;76.70
40023;DHT22;25713;-35.352;149.036;2023-05-17T09:11:28;14.90;76.40
40023;DHT22;25713;-35.352;149.036;2023-05-17T09:13:59;14.80;76.00
40023;DHT22;25713;-35.352;149.036;2023-05-17T09:16:29;14.80;75.90
40023;DHT22;25713;-35.352;149.036;2023-05-17T09:18:59;14.80;75.80
40023;DHT22;25713;-35.352;149.036;2023-05-17T09:21:31;14.80;75.80
40023;DHT22;25713;-35.352;149.036;2023-05-17T09:24:01;14.80;75.80
40023;DHT22;25713;-35.352;149.036;2023-05-17T09:26:38;14.80;75.50
40023;DHT22;25713;-35.352;149.036;2023-05-17T09:29:09;14.80;75.60
40023;DHT22;25713;-35.352;149.036;2023-05-17T09:31:39;14.80;75.40
40023;DHT22;25713;-35.352;149.036;2023-05-17T09:34:09;14.70;75.10
40023;DHT22;25713;-35.352;149.036;2023-05-17T09:36:42;14.70;74.70
40023;DHT22;25713;-35.352;149.036;2023-05-17T09:39:12;14.70;74.40
40023;DHT22;25713;-35.352;149.036;2023-05-17T09:41:42;14.70;74.20
40023;DHT22;25713;-35.352;149.036;2023-05-17T09:44:12;14.70;74.00
40023;DHT22;25713;-35.352;149.036;2023-05-17T09:46:43;14.70;73.90
40023;DHT22;25713;-35.352;149.036;2023-05-17T09:49:14;14.70;73.60
40023;DHT22;25713;-35.352;149.036;2023-05-17T09:51:47;14.70;73.80
40023;DHT22;25713;-35.352;149.036;2023-05-17T09:54:17;14.70;73.70
40023;DHT22;25713;-35.352;149.036;2023-05-17T09:56:53;14.60;73.40
40023;DHT22;25713;-35.352;149.036;2023-05-17T09:59:23;14.60;73.00
40023;DHT22;25713;-35.352;149.036;2023-05-17T10:01:55;14.60;72.90
40023;DHT22;25713;-35.352;149.036;2023-05-17T10:04:29;14.60;73.00
40023;DHT22;25713;-35.352;149.036;2023-05-17T10:07:02;14.60;72.80
40023;DHT22;25713;-35.352;149.036;2023-05-17T10:09:33;14.60;72.60
40023;DHT22;25713;-35.352;149.036;2023-05-17T10:12:04;14.60;72.20
40023;DHT22;25713;-35.352;149.036;2023-05-17T10:14:35;14.60;72.20
40023;DHT22;25713;-35.352;149.036;2023-05-17T10:17:05;14.50;72.10
40023;DHT22;25713;-35.352;149.036;2023-05-17T10:19:36;14.50;71.60
40023;DHT22;25713;-35.352;149.036;2023-05-17T10:22:09;14.50;71.10
40023;DHT22;25713;-35.352;149.036;2023-05-17T10:24:40;14.50;71.10
40023;DHT22;25713;-35.352;149.036;2023-05-17T10:27:10;14.50;71.70
40023;DHT22;25713;-35.352;149.036;2023-05-17T10:29:39;14.50;71.60
40023;DHT22;25713;-35.352;149.036;2023-05-17T10:32:09;14.50;71.50
40023;DHT22;25713;-35.352;149.036;2023-05-17T10:34:41;14.40;71.20
40023;DHT22;25713;-35.352;149.036;2023-05-17T10:37:14;14.40;71.30
40023;DHT22;25713;-35.352;149.036;2023-05-17T10:39:46;14.40;71.50
40023;DHT22;25713;-35.352;149.036;2023-05-17T10:42:16;14.40;71.50
40023;DHT22;25713;-35.352;149.036;2023-05-17T10:44:46;14.40;71.30
40023;DHT22;25713;-35.352;149.036;2023-05-17T10:47:16;14.40;71.40
40023;DHT22;25713;-35.352;149.036;2023-05-17T10:49:45;14.40;71.40
40023;DHT22;25713;-35.352;149.036;2023-05-17T10:52:20;14.40;71.90
40023;DHT22;25713;-35.352;149.036;2023-05-17T10:54:50;14.30;71.20
40023;DHT22;25713;-35.352;149.036;2023-05-17T10:57:20;14.30;71.00
40023;DHT22;25713;-35.352;149.036;2023-05-17T10:59:57;14.30;70.90
40023;DHT22;25713;-35.352;149.036;2023-05-17T11:02:27;14.30;71.00
40023;DHT22;25713;-35.352;149.036;2023-05-17T11:04:57;14.30;71.30
40023;DHT22;25713;-35.352;149.036;2023-05-17T11:07:30;14.30;70.60
40023;DHT22;25713;-35.352;149.036;2023-05-17T11:10:10;14.20;69.90
40023;DHT22;25713;-35.352;149.036;2023-05-17T11:12:41;14.20;70.20
40023;DHT22;25713;-35.352;149.036;2023-05-17T11:15:12;14.20;69.60
40023;DHT22;25713;-35.352;149.036;2023-05-17T11:17:49;14.20;70.30
40023;DHT22;25713;-35.352;149.036;2023-05-17T11:20:34;14.20;69.50
40023;DHT22;25713;-35.352;149.036;2023-05-17T11:23:14;14.20;69.20
40023;DHT22;25713;-35.352;149.036;2023-05-17T11:25:44;14.20;69.50
40023;DHT22;25713;-35.352;149.036;2023-05-17T11:28:19;14.10;69.80
40023;DHT22;25713;-35.352;149.036;2023-05-17T11:30:48;14.10;68.80
40023;DHT22;25713;-35.352;149.036;2023-05-17T11:33:18;14.10;69.30
40023;DHT22;25713;-35.352;149.036;2023-05-17T11:35:47;14.10;69.50
40023;DHT22;25713;-35.352;149.036;2023-05-17T11:38:28;14.10;69.40
40023;DHT22;25713;-35.352;149.036;2023-05-17T11:41:00;14.10;69.40
40023;DHT22;25713;-35.352;149.036;2023-05-17T11:43:46;14.10;69.30
40023;DHT22;25713;-35.352;149.036;2023-05-17T11:46:22;14.00;69.20
40023;DHT22;25713;-35.352;149.036;2023-05-17T11:48:52;14.00;69.60
40023;DHT22;25713;-35.352;149.036;2023-05-17T11:51:22;14.00;69.20
40023;DHT22;25713;-35.352;149.036;2023-05-17T11:53:55;14.00;69.10
40023;DHT22;25713;-35.352;149.036;2023-05-17T11:56:26;14.00;69.40
40023;DHT22;25713;-35.352;149.036;2023-05-17T11:58:56;14.00;69.20
40023;DHT22;25713;-35.352;149.036;2023-05-17T12:01:25;14.00;69.30
40023;DHT22;25713;-35.352;149.036;2023-05-17T12:03:56;14.00;69.50
40023;DHT22;25713;-35.352;149.036;2023-05-17T12:06:26;14.00;68.90
40023;DHT22;25713;-35.352;149.036;2023-05-17T12:08:59;14.00;69.10
40023;DHT22;25713;-35.352;149.036;2023-05-17T12:11:29;14.00;69.20
40023;DHT22;25713;-35.352;149.036;2023-05-17T12:13:58;14.00;68.90
40023;DHT22;25713;-35.352;149.036;2023-05-17T12:16:29;14.00;69.10
40023;DHT22;25713;-35.352;149.036;2023-05-17T12:18:59;13.90;69.00
40023;DHT22;25713;-35.352;149.036;2023-05-17T12:21:29;13.90;68.80
40023;DHT22;25713;-35.352;149.036;2023-05-17T12:24:03;13.90;68.70
40023;DHT22;25713;-35.352;149.036;2023-05-17T12:26:32;13.90;68.30
40023;DHT22;25713;-35.352;149.036;2023-05-17T12:29:02;13.90;68.20
40023;DHT22;25713;-35.352;149.036;2023-05-17T12:31:33;13.90;68.30
40023;DHT22;25713;-35.352;149.036;2023-05-17T12:34:05;13.90;68.10
40023;DHT22;25713;-35.352;149.036;2023-05-17T12:36:35;13.80;68.10
40023;DHT22;25713;-35.352;149.036;2023-05-17T12:39:08;13.90;68.00
40023;DHT22;25713;-35.352;149.036;2023-05-17T12:41:39;13.80;67.70
40023;DHT22;25713;-35.352;149.036;2023-05-17T12:44:10;13.80;67.60
40023;DHT22;25713;-35.352;149.036;2023-05-17T12:46:40;13.80;67.30
40023;DHT22;25713;-35.352;149.036;2023-05-17T12:49:10;13.80;67.20
40023;DHT22;25713;-35.352;149.036;2023-05-17T12:51:43;13.70;67.20
40023;DHT22;25713;-35.352;149.036;2023-05-17T12:54:25;13.80;68.50
40023;DHT22;25713;-35.352;149.036;2023-05-17T12:56:55;13.80;67.90
40023;DHT22;25713;-35.352;149.036;2023-05-17T12:59:24;13.70;67.20
40023;DHT22;25713;-35.352;149.036;2023-05-17T13:01:54;13.70;67.30
40023;DHT22;25713;-35.352;149.036;2023-05-17T13:04:29;13.70;67.20
40023;DHT22;25713;-35.352;149.036;2023-05-17T13:07:00;13.70;67.00
40023;DHT22;25713;-35.352;149.036;2023-05-17T13:09:33;13.70;67.10
40023;DHT22;25713;-35.352;149.036;2023-05-17T13:12:19;13.60;67.30
40023;DHT22;25713;-35.352;149.036;2023-05-17T13:14:49;13.70;67.10
40023;DHT22;25713;-35.352;149.036;2023-05-17T13:17:23;13.60;67.50
40023;DHT22;25713;-35.352;149.036;2023-05-17T13:19:53;13.60;67.30
40023;DHT22;25713;-35.352;149.036;2023-05-17T13:22:23;13.60;67.10
40023;DHT22;25713;-35.352;149.036;2023-05-17T13:24:55;13.60;67.50
40023;DHT22;25713;-35.352;149.036;2023-05-17T13:27:25;13.60;67.40
40023;DHT22;25713;-35.352;149.036;2023-05-17T13:29:54;13.60;67.30
40023;DHT22;25713;-35.352;149.036;2023-05-17T13:32:24;13.60;67.60
40023;DHT22;25713;-35.352;149.036;2023-05-17T13:34:53;13.60;68.60
40023;DHT22;25713;-35.352;149.036;2023-05-17T13:37:23;13.60;68.50
40023;DHT22;25713;-35.352;149.036;2023-05-17T13:39:54;13.60;69.00
40023;DHT22;25713;-35.352;149.036;2023-05-17T13:42:24;13.50;69.00
40023;DHT22;25713;-35.352;149.036;2023-05-17T13:44:53;13.50;69.60
40023;DHT22;25713;-35.352;149.036;2023-05-17T13:47:23;13.50;69.90
40023;DHT22;25713;-35.352;149.036;2023-05-17T13:49:52;13.50;70.40
40023;DHT22;25713;-35.352;149.036;2023-05-17T13:52:22;13.50;69.60
40023;DHT22;25713;-35.352;149.036;2023-05-17T13:54:53;13.50;70.70
40023;DHT22;25713;-35.352;149.036;2023-05-17T13:57:23;13.50;71.10
40023;DHT22;25713;-35.352;149.036;2023-05-17T13:59:52;13.50;70.40
40023;DHT22;25713;-35.352;149.036;2023-05-17T14:02:22;13.50;72.50
40023;DHT22;25713;-35.352;149.036;2023-05-17T14:04:51;13.40;72.40
40023;DHT22;25713;-35.352;149.036;2023-05-17T14:07:20;13.50;69.90
40023;DHT22;25713;-35.352;149.036;2023-05-17T14:09:50;13.40;72.30
40023;DHT22;25713;-35.352;149.036;2023-05-17T14:12:23;13.40;71.30
40023;DHT22;25713;-35.352;149.036;2023-05-17T14:14:52;13.30;72.30
40023;DHT22;25713;-35.352;149.036;2023-05-17T14:17:21;13.30;71.80
40023;DHT22;25713;-35.352;149.036;2023-05-17T14:19:51;13.30;70.90
40023;DHT22;25713;-35.352;149.036;2023-05-17T14:22:21;13.20;71.40
40023;DHT22;25713;-35.352;149.036;2023-05-17T14:24:51;13.20;71.10
40023;DHT22;25713;-35.352;149.036;2023-05-17T14:27:24;13.20;70.90
40023;DHT22;25713;-35.352;149.036;2023-05-17T14:29:54;13.20;69.90
40023;DHT22;25713;-35.352;149.036;2023-05-17T14:32:23;13.00;70.80
40023;DHT22;25713;-35.352;149.036;2023-05-17T14:34:53;13.00;72.30
40023;DHT22;25713;-35.352;149.036;2023-05-17T14:37:22;13.00;71.50
40023;DHT22;25713;-35.352;149.036;2023-05-17T14:39:52;13.00;71.20
40023;DHT22;25713;-35.352;149.036;2023-05-17T14:42:24;13.00;71.80
40023;DHT22;25713;-35.352;149.036;2023-05-17T14:44:54;13.00;71.30
40023;DHT22;25713;-35.352;149.036;2023-05-17T14:47:24;13.00;72.60
40023;DHT22;25713;-35.352;149.036;2023-05-17T16:01:25;12.60;72.10
40023;DHT22;25713;-35.352;149.036;2023-05-17T16:03:55;12.60;73.20
40023;DHT22;25713;-35.352;149.036;2023-05-17T16:06:24;12.60;72.30
40023;DHT22;25713;-35.352;149.036;2023-05-17T16:08:54;12.60;73.50
40023;DHT22;25713;-35.352;149.036;2023-05-17T16:11:23;12.70;72.70
40023;DHT22;25713;-35.352;149.036;2023-05-17T16:13:53;12.70;72.90
40023;DHT22;25713;-35.352;149.036;2023-05-17T16:16:25;12.70;73.90
40023;DHT22;25713;-35.352;149.036;2023-05-17T16:18:55;12.70;74.30
40023;DHT22;25713;-35.352;149.036;2023-05-17T16:21:24;12.70;73.30